sensor_id;sensor_type;location;lat;lon;timestamp;P1;durP1;ratioP1;P2;durP2;ratioP2
67904;SDS011;54709;43.614;1.576;2023-11-19T00:01:07;11.93;;;7.25;;
67904;SDS011;54709;43.614;1.576;2023-11-19T00:03:32;10.63;;;6.72;;
67904;SDS011;54709;43.614;1.576;2023-11-19T00:05:58;12.48;;;7.28;;
67904;SDS011;54709;43.614;1.576;2023-11-19T00:08:24;10.95;;;6.80;;
67904;SDS011;54709;43.614;1.576;2023-11-19T00:10:49;14.63;;;7.55;;
67904;SDS011;54709;43.614;1.576;2023-11-19T00:13:16;12.50;;;6.40;;
67904;SDS011;54709;43.614;1.576;2023-11-19T00:15:41;12.93;;;7.18;;
67904;SDS011;54709;43.614;1.576;2023-11-19T00:18:07;11.73;;;6.65;;
67904;SDS011;54709;43.614;1.576;2023-11-19T00:20:32;10.35;;;6.68;;
67904;SDS011;54709;43.614;1.576;2023-11-19T00:22:57;8.68;;;6.07;;
67904;SDS011;54709;43.614;1.576;2023-11-19T00:25:23;11.57;;;6.32;;
67904;SDS011;54709;43.614;1.576;2023-11-19T00:27:49;8.93;;;6.13;;
67904;SDS011;54709;43.614;1.576;2023-11-19T00:30:16;10.63;;;6.47;;
67904;SDS011;54709;43.614;1.576;2023-11-19T00:32:41;11.73;;;6.63;;
67904;SDS011;54709;43.614;1.576;2023-11-19T00:35:07;10.02;;;6.72;;
67904;SDS011;54709;43.614;1.576;2023-11-19T00:37:33;12.77;;;7.25;;
67904;SDS011;54709;43.614;1.576;2023-11-19T00:39:59;10.10;;;7.03;;
67904;SDS011;54709;43.614;1.576;2023-11-19T00:42:24;11.38;;;7.25;;
67904;SDS011;54709;43.614;1.576;2023-11-19T00:44:50;14.20;;;7.90;;
67904;SDS011;54709;43.614;1.576;2023-11-19T00:47:16;11.98;;;7.70;;
67904;SDS011;54709;43.614;1.576;2023-11-19T00:49:41;11.23;;;7.25;;
67904;SDS011;54709;43.614;1.576;2023-11-19T00:52:07;11.98;;;7.43;;
67904;SDS011;54709;43.614;1.576;2023-11-19T00:54:33;14.73;;;7.72;;
67904;SDS011;54709;43.614;1.576;2023-11-19T00:56:58;11.57;;;8.10;;
67904;SDS011;54709;43.614;1.576;2023-11-19T00:59:24;12.40;;;8.25;;
67904;SDS011;54709;43.614;1.576;2023-11-19T01:01:49;14.95;;;9.10;;
67904;SDS011;54709;43.614;1.576;2023-11-19T01:04:16;13.00;;;8.25;;
67904;SDS011;54709;43.614;1.576;2023-11-19T01:06:41;13.18;;;8.07;;
67904;SDS011;54709;43.614;1.576;2023-11-19T01:09:07;13.75;;;9.10;;
67904;SDS011;54709;43.614;1.576;2023-11-19T01:11:33;11.98;;;9.43;;
67904;SDS011;54709;43.614;1.576;2023-11-19T01:13:59;14.98;;;9.32;;
67904;SDS011;54709;43.614;1.576;2023-11-19T01:16:25;13.60;;;9.38;;
67904;SDS011;54709;43.614;1.576;2023-11-19T01:18:51;14.02;;;10.27;;
67904;SDS011;54709;43.614;1.576;2023-11-19T01:21:16;16.13;;;10.40;;
67904;SDS011;54709;43.614;1.576;2023-11-19T01:23:42;15.98;;;10.93;;
67904;SDS011;54709;43.614;1.576;2023-11-19T01:26:11;16.35;;;10.55;;
67904;SDS011;54709;43.614;1.576;2023-11-19T01:28:37;17.45;;;10.32;;
67904;SDS011;54709;43.614;1.576;2023-11-19T01:31:04;17.15;;;10.52;;
67904;SDS011;54709;43.614;1.576;2023-11-19T01:33:30;19.75;;;12.25;;
67904;SDS011;54709;43.614;1.576;2023-11-19T01:35:56;18.38;;;11.45;;
67904;SDS011;54709;43.614;1.576;2023-11-19T01:38:23;18.27;;;11.43;;
67904;SDS011;54709;43.614;1.576;2023-11-19T01:40:49;16.85;;;11.60;;
67904;SDS011;54709;43.614;1.576;2023-11-19T01:43:30;17.70;;;11.75;;
67904;SDS011;54709;43.614;1.576;2023-11-19T01:46:08;16.20;;;11.20;;
67904;SDS011;54709;43.614;1.576;2023-11-19T01:48:38;18.67;;;11.65;;
67904;SDS011;54709;43.614;1.576;2023-11-19T01:51:07;16.83;;;11.73;;
67904;SDS011;54709;43.614;1.576;2023-11-19T01:53:33;20.55;;;12.95;;
67904;SDS011;54709;43.614;1.576;2023-11-19T01:56:00;20.45;;;12.52;;
67904;SDS011;54709;43.614;1.576;2023-11-19T01:58:25;22.08;;;13.68;;
67904;SDS011;54709;43.614;1.576;2023-11-19T02:00:51;22.95;;;12.80;;
67904;SDS011;54709;43.614;1.576;2023-11-19T02:03:17;18.30;;;12.55;;
67904;SDS011;54709;43.614;1.576;2023-11-19T02:05:42;17.08;;;11.52;;
67904;SDS011;54709;43.614;1.576;2023-11-19T02:08:08;18.73;;;12.32;;
67904;SDS011;54709;43.614;1.576;2023-11-19T02:10:33;16.85;;;11.90;;
67904;SDS011;54709;43.614;1.576;2023-11-19T02:12:59;17.75;;;12.13;;
67904;SDS011;54709;43.614;1.576;2023-11-19T02:15:24;19.55;;;12.73;;
67904;SDS011;54709;43.614;1.576;2023-11-19T02:17:50;20.73;;;11.90;;
67904;SDS011;54709;43.614;1.576;2023-11-19T02:20:16;21.92;;;12.45;;
67904;SDS011;54709;43.614;1.576;2023-11-19T02:22:41;17.48;;;12.60;;
67904;SDS011;54709;43.614;1.576;2023-11-19T02:25:08;20.40;;;12.23;;
67904;SDS011;54709;43.614;1.576;2023-11-19T02:30:21;19.02;;;12.27;;
67904;SDS011;54709;43.614;1.576;2023-11-19T02:32:51;19.75;;;12.30;;
67904;SDS011;54709;43.614;1.576;2023-11-19T02:35:18;18.40;;;11.90;;
67904;SDS011;54709;43.614;1.576;2023-11-19T02:37:43;17.63;;;11.93;;
67904;SDS011;54709;43.614;1.576;2023-11-19T02:40:10;19.90;;;11.98;;
67904;SDS011;54709;43.614;1.576;2023-11-19T02:42:35;18.00;;;12.30;;
67904;SDS011;54709;43.614;1.576;2023-11-19T02:45:01;19.67;;;11.98;;
67904;SDS011;54709;43.614;1.576;2023-11-19T02:47:27;19.88;;;12.02;;
67904;SDS011;54709;43.614;1.576;2023-11-19T02:49:55;21.63;;;11.88;;
67904;SDS011;54709;43.614;1.576;2023-11-19T02:52:20;21.13;;;11.88;;
67904;SDS011;54709;43.614;1.576;2023-11-19T02:54:46;18.63;;;11.70;;
67904;SDS011;54709;43.614;1.576;2023-11-19T02:57:11;19.95;;;12.20;;
67904;SDS011;54709;43.614;1.576;2023-11-19T02:59:38;19.08;;;12.70;;
67904;SDS011;54709;43.614;1.576;2023-11-19T03:02:06;17.98;;;11.75;;
67904;SDS011;54709;43.614;1.576;2023-11-19T03:04:35;17.38;;;12.00;;
67904;SDS011;54709;43.614;1.576;2023-11-19T03:07:00;17.52;;;11.13;;
67904;SDS011;54709;43.614;1.576;2023-11-19T03:09:25;18.90;;;11.40;;
67904;SDS011;54709;43.614;1.576;2023-11-19T03:11:51;13.05;;;10.25;;
67904;SDS011;54709;43.614;1.576;2023-11-19T03:14:16;15.90;;;10.98;;
67904;SDS011;54709;43.614;1.576;2023-11-19T03:16:45;16.05;;;10.27;;
67904;SDS011;54709;43.614;1.576;2023-11-19T03:19:11;16.05;;;10.60;;
67904;SDS011;54709;43.614;1.576;2023-11-19T03:21:36;16.70;;;9.98;;
67904;SDS011;54709;43.614;1.576;2023-11-19T03:24:02;13.60;;;9.93;;
67904;SDS011;54709;43.614;1.576;2023-11-19T03:26:28;15.07;;;10.23;;
67904;SDS011;54709;43.614;1.576;2023-11-19T03:28:54;15.48;;;10.20;;
67904;SDS011;54709;43.614;1.576;2023-11-19T03:31:19;15.88;;;10.20;;
67904;SDS011;54709;43.614;1.576;2023-11-19T03:33:45;13.60;;;10.07;;
67904;SDS011;54709;43.614;1.576;2023-11-19T03:36:11;14.85;;;9.85;;
67904;SDS011;54709;43.614;1.576;2023-11-19T03:38:37;13.98;;;9.60;;
67904;SDS011;54709;43.614;1.576;2023-11-19T03:41:12;15.13;;;9.80;;
67904;SDS011;54709;43.614;1.576;2023-11-19T03:43:38;14.35;;;9.85;;
67904;SDS011;54709;43.614;1.576;2023-11-19T03:46:05;15.30;;;9.05;;
67904;SDS011;54709;43.614;1.576;2023-11-19T03:48:49;14.57;;;9.63;;
67904;SDS011;54709;43.614;1.576;2023-11-19T03:51:14;13.25;;;9.73;;
67904;SDS011;54709;43.614;1.576;2023-11-19T03:53:42;12.40;;;9.40;;
67904;SDS011;54709;43.614;1.576;2023-11-19T03:56:08;14.82;;;10.18;;
67904;SDS011;54709;43.614;1.576;2023-11-19T03:58:35;13.35;;;9.40;;
67904;SDS011;54709;43.614;1.576;2023-11-19T04:01:00;13.13;;;9.70;;
67904;SDS011;54709;43.614;1.576;2023-11-19T04:03:26;13.35;;;9.60;;
67904;SDS011;54709;43.614;1.576;2023-11-19T04:05:51;15.18;;;9.45;;
67904;SDS011;54709;43.614;1.576;2023-11-19T04:08:17;15.43;;;9.45;;
67904;SDS011;54709;43.614;1.576;2023-11-19T04:10:42;12.85;;;8.75;;
67904;SDS011;54709;43.614;1.576;2023-11-19T04:13:07;14.65;;;9.30;;
67904;SDS011;54709;43.614;1.576;2023-11-19T04:15:33;13.32;;;9.63;;
67904;SDS011;54709;43.614;1.576;2023-11-19T04:17:58;14.77;;;9.20;;
67904;SDS011;54709;43.614;1.576;2023-11-19T04:20:23;15.55;;;9.88;;
67904;SDS011;54709;43.614;1.576;2023-11-19T04:22:49;17.00;;;9.70;;
67904;SDS011;54709;43.614;1.576;2023-11-19T04:25:16;16.60;;;10.25;;
67904;SDS011;54709;43.614;1.576;2023-11-19T04:27:41;13.75;;;9.93;;
67904;SDS011;54709;43.614;1.576;2023-11-19T04:30:07;16.08;;;9.55;;
67904;SDS011;54709;43.614;1.576;2023-11-19T04:32:35;15.85;;;10.50;;
67904;SDS011;54709;43.614;1.576;2023-11-19T04:35:01;13.90;;;10.07;;
67904;SDS011;54709;43.614;1.576;2023-11-19T04:37:26;16.98;;;10.88;;
67904;SDS011;54709;43.614;1.576;2023-11-19T04:39:52;17.38;;;10.93;;
67904;SDS011;54709;43.614;1.576;2023-11-19T04:42:17;15.25;;;11.07;;
67904;SDS011;54709;43.614;1.576;2023-11-19T04:44:43;16.88;;;10.65;;
67904;SDS011;54709;43.614;1.576;2023-11-19T04:47:08;15.43;;;9.48;;
67904;SDS011;54709;43.614;1.576;2023-11-19T04:49:36;13.02;;;8.18;;
67904;SDS011;54709;43.614;1.576;2023-11-19T04:52:05;12.68;;;7.57;;
67904;SDS011;54709;43.614;1.576;2023-11-19T04:54:30;12.15;;;8.05;;
67904;SDS011;54709;43.614;1.576;2023-11-19T04:56:55;12.50;;;7.93;;
67904;SDS011;54709;43.614;1.576;2023-11-19T04:59:21;11.70;;;7.93;;
67904;SDS011;54709;43.614;1.576;2023-11-19T05:01:46;12.93;;;7.50;;
67904;SDS011;54709;43.614;1.576;2023-11-19T05:04:13;11.90;;;8.07;;
67904;SDS011;54709;43.614;1.576;2023-11-19T05:06:38;12.63;;;8.52;;
67904;SDS011;54709;43.614;1.576;2023-11-19T05:09:03;11.93;;;8.32;;
67904;SDS011;54709;43.614;1.576;2023-11-19T05:11:37;12.52;;;8.50;;
67904;SDS011;54709;43.614;1.576;2023-11-19T05:14:03;12.57;;;8.00;;
67904;SDS011;54709;43.614;1.576;2023-11-19T05:16:29;13.38;;;8.23;;
67904;SDS011;54709;43.614;1.576;2023-11-19T05:18:54;12.93;;;9.23;;
67904;SDS011;54709;43.614;1.576;2023-11-19T05:21:20;13.15;;;9.07;;
67904;SDS011;54709;43.614;1.576;2023-11-19T05:23:45;14.13;;;8.85;;
67904;SDS011;54709;43.614;1.576;2023-11-19T05:26:18;12.68;;;9.00;;
67904;SDS011;54709;43.614;1.576;2023-11-19T05:28:45;13.57;;;9.07;;
67904;SDS011;54709;43.614;1.576;2023-11-19T05:31:10;12.45;;;8.60;;
67904;SDS011;54709;43.614;1.576;2023-11-19T05:33:35;13.02;;;9.15;;
67904;SDS011;54709;43.614;1.576;2023-11-19T05:36:01;16.45;;;9.35;;
67904;SDS011;54709;43.614;1.576;2023-11-19T05:38:28;15.02;;;9.55;;
67904;SDS011;54709;43.614;1.576;2023-11-19T05:40:54;14.18;;;9.48;;
67904;SDS011;54709;43.614;1.576;2023-11-19T05:43:19;14.82;;;9.57;;
67904;SDS011;54709;43.614;1.576;2023-11-19T05:45:44;15.27;;;9.82;;
67904;SDS011;54709;43.614;1.576;2023-11-19T05:48:10;13.50;;;9.52;;
67904;SDS011;54709;43.614;1.576;2023-11-19T05:50:35;16.50;;;9.73;;
67904;SDS011;54709;43.614;1.576;2023-11-19T05:53:01;13.48;;;10.00;;
67904;SDS011;54709;43.614;1.576;2023-11-19T05:55:26;17.58;;;10.45;;
67904;SDS011;54709;43.614;1.576;2023-11-19T05:57:53;12.57;;;10.02;;
67904;SDS011;54709;43.614;1.576;2023-11-19T06:00:19;17.42;;;10.30;;
67904;SDS011;54709;43.614;1.576;2023-11-19T06:02:44;15.68;;;10.07;;
67904;SDS011;54709;43.614;1.576;2023-11-19T06:05:10;19.08;;;9.93;;
67904;SDS011;54709;43.614;1.576;2023-11-19T06:07:35;14.40;;;9.98;;
67904;SDS011;54709;43.614;1.576;2023-11-19T06:10:01;17.38;;;10.57;;
67904;SDS011;54709;43.614;1.576;2023-11-19T06:12:28;14.93;;;9.93;;
67904;SDS011;54709;43.614;1.576;2023-11-19T06:14:53;14.38;;;10.18;;
67904;SDS011;54709;43.614;1.576;2023-11-19T06:17:19;16.08;;;11.55;;
67904;SDS011;54709;43.614;1.576;2023-11-19T06:19:44;17.10;;;10.77;;
67904;SDS011;54709;43.614;1.576;2023-11-19T06:22:10;17.77;;;11.00;;
67904;SDS011;54709;43.614;1.576;2023-11-19T06:24:36;15.25;;;11.25;;
67904;SDS011;54709;43.614;1.576;2023-11-19T06:27:01;17.23;;;10.80;;
67904;SDS011;54709;43.614;1.576;2023-11-19T06:29:27;17.02;;;11.15;;
67904;SDS011;54709;43.614;1.576;2023-11-19T06:31:53;14.32;;;11.25;;
67904;SDS011;54709;43.614;1.576;2023-11-19T06:34:18;17.73;;;11.60;;
67904;SDS011;54709;43.614;1.576;2023-11-19T06:36:44;16.95;;;11.23;;
67904;SDS011;54709;43.614;1.576;2023-11-19T06:39:09;17.35;;;11.65;;
67904;SDS011;54709;43.614;1.576;2023-11-19T06:41:36;17.08;;;11.95;;
67904;SDS011;54709;43.614;1.576;2023-11-19T06:44:03;22.95;;;14.45;;
67904;SDS011;54709;43.614;1.576;2023-11-19T06:46:29;18.80;;;14.15;;
67904;SDS011;54709;43.614;1.576;2023-11-19T06:48:56;21.10;;;13.88;;
67904;SDS011;54709;43.614;1.576;2023-11-19T06:51:21;18.58;;;13.05;;
67904;SDS011;54709;43.614;1.576;2023-11-19T06:53:46;18.42;;;13.38;;
67904;SDS011;54709;43.614;1.576;2023-11-19T06:56:21;20.85;;;13.85;;
67904;SDS011;54709;43.614;1.576;2023-11-19T06:58:47;20.88;;;13.38;;
67904;SDS011;54709;43.614;1.576;2023-11-19T07:01:13;20.88;;;15.13;;
67904;SDS011;54709;43.614;1.576;2023-11-19T07:03:40;21.40;;;14.38;;
67904;SDS011;54709;43.614;1.576;2023-11-19T07:06:05;21.60;;;16.20;;
67904;SDS011;54709;43.614;1.576;2023-11-19T07:08:31;20.88;;;15.68;;
67904;SDS011;54709;43.614;1.576;2023-11-19T07:10:56;22.70;;;16.52;;
67904;SDS011;54709;43.614;1.576;2023-11-19T07:13:21;22.63;;;15.73;;
67904;SDS011;54709;43.614;1.576;2023-11-19T07:15:47;21.98;;;15.80;;
67904;SDS011;54709;43.614;1.576;2023-11-19T07:18:12;24.85;;;15.00;;
67904;SDS011;54709;43.614;1.576;2023-11-19T07:20:38;25.30;;;15.77;;
67904;SDS011;54709;43.614;1.576;2023-11-19T07:23:05;24.35;;;16.42;;
67904;SDS011;54709;43.614;1.576;2023-11-19T07:25:31;23.23;;;16.45;;
67904;SDS011;54709;43.614;1.576;2023-11-19T07:27:56;24.30;;;15.43;;
67904;SDS011;54709;43.614;1.576;2023-11-19T07:30:22;23.40;;;15.50;;
67904;SDS011;54709;43.614;1.576;2023-11-19T07:32:47;22.65;;;15.32;;
67904;SDS011;54709;43.614;1.576;2023-11-19T07:35:13;25.05;;;17.17;;
67904;SDS011;54709;43.614;1.576;2023-11-19T07:37:39;21.33;;;16.00;;
67904;SDS011;54709;43.614;1.576;2023-11-19T07:40:04;22.77;;;15.25;;
67904;SDS011;54709;43.614;1.576;2023-11-19T07:42:30;22.45;;;16.95;;
67904;SDS011;54709;43.614;1.576;2023-11-19T07:44:56;24.08;;;17.13;;
67904;SDS011;54709;43.614;1.576;2023-11-19T07:47:22;27.80;;;18.23;;
67904;SDS011;54709;43.614;1.576;2023-11-19T07:49:48;23.83;;;17.33;;
67904;SDS011;54709;43.614;1.576;2023-11-19T07:52:15;28.95;;;19.45;;
67904;SDS011;54709;43.614;1.576;2023-11-19T07:54:40;27.23;;;18.55;;
67904;SDS011;54709;43.614;1.576;2023-11-19T07:57:05;24.95;;;17.67;;
67904;SDS011;54709;43.614;1.576;2023-11-19T07:59:31;25.13;;;18.15;;
67904;SDS011;54709;43.614;1.576;2023-11-19T08:01:56;25.05;;;18.17;;
67904;SDS011;54709;43.614;1.576;2023-11-19T08:04:22;27.63;;;17.77;;
67904;SDS011;54709;43.614;1.576;2023-11-19T08:06:48;23.65;;;17.45;;
67904;SDS011;54709;43.614;1.576;2023-11-19T08:09:13;27.13;;;18.60;;
67904;SDS011;54709;43.614;1.576;2023-11-19T08:11:40;27.08;;;19.45;;
67904;SDS011;54709;43.614;1.576;2023-11-19T08:14:06;26.67;;;18.52;;
67904;SDS011;54709;43.614;1.576;2023-11-19T08:16:31;27.27;;;18.15;;
67904;SDS011;54709;43.614;1.576;2023-11-19T08:18:56;29.38;;;18.92;;
67904;SDS011;54709;43.614;1.576;2023-11-19T08:21:23;25.95;;;18.63;;
67904;SDS011;54709;43.614;1.576;2023-11-19T08:23:48;26.50;;;18.30;;
67904;SDS011;54709;43.614;1.576;2023-11-19T08:26:14;24.77;;;18.15;;
67904;SDS011;54709;43.614;1.576;2023-11-19T08:28:40;29.10;;;18.88;;
67904;SDS011;54709;43.614;1.576;2023-11-19T08:31:05;25.98;;;18.33;;
67904;SDS011;54709;43.614;1.576;2023-11-19T08:33:31;24.30;;;17.83;;
67904;SDS011;54709;43.614;1.576;2023-11-19T08:35:57;24.95;;;18.42;;
67904;SDS011;54709;43.614;1.576;2023-11-19T08:38:23;27.35;;;18.65;;
67904;SDS011;54709;43.614;1.576;2023-11-19T08:40:49;29.17;;;18.25;;
67904;SDS011;54709;43.614;1.576;2023-11-19T08:43:14;29.25;;;18.45;;
67904;SDS011;54709;43.614;1.576;2023-11-19T08:45:40;25.60;;;17.25;;
67904;SDS011;54709;43.614;1.576;2023-11-19T08:48:05;22.20;;;16.70;;
67904;SDS011;54709;43.614;1.576;2023-11-19T08:50:31;23.17;;;16.05;;
67904;SDS011;54709;43.614;1.576;2023-11-19T08:52:56;15.95;;;12.50;;
67904;SDS011;54709;43.614;1.576;2023-11-19T08:55:21;18.17;;;11.93;;
67904;SDS011;54709;43.614;1.576;2023-11-19T08:57:47;18.05;;;12.02;;
67904;SDS011;54709;43.614;1.576;2023-11-19T09:00:12;16.75;;;11.88;;
67904;SDS011;54709;43.614;1.576;2023-11-19T09:02:39;16.65;;;11.63;;
67904;SDS011;54709;43.614;1.576;2023-11-19T09:05:05;17.77;;;11.32;;
67904;SDS011;54709;43.614;1.576;2023-11-19T09:07:32;14.82;;;10.13;;
67904;SDS011;54709;43.614;1.576;2023-11-19T09:09:58;19.77;;;12.07;;
67904;SDS011;54709;43.614;1.576;2023-11-19T09:12:23;17.42;;;14.35;;
67904;SDS011;54709;43.614;1.576;2023-11-19T09:14:48;18.65;;;13.15;;
67904;SDS011;54709;43.614;1.576;2023-11-19T09:17:14;17.58;;;13.82;;
67904;SDS011;54709;43.614;1.576;2023-11-19T09:19:40;17.83;;;13.55;;
67904;SDS011;54709;43.614;1.576;2023-11-19T09:22:05;22.85;;;13.05;;
67904;SDS011;54709;43.614;1.576;2023-11-19T09:24:31;18.58;;;14.25;;
67904;SDS011;54709;43.614;1.576;2023-11-19T09:26:56;18.52;;;12.80;;
67904;SDS011;54709;43.614;1.576;2023-11-19T09:29:22;20.30;;;13.73;;
67904;SDS011;54709;43.614;1.576;2023-11-19T09:31:48;18.23;;;13.38;;
67904;SDS011;54709;43.614;1.576;2023-11-19T09:34:14;21.65;;;13.77;;
67904;SDS011;54709;43.614;1.576;2023-11-19T09:36:39;17.10;;;12.98;;
67904;SDS011;54709;43.614;1.576;2023-11-19T09:39:08;19.17;;;12.43;;
67904;SDS011;54709;43.614;1.576;2023-11-19T09:41:34;17.90;;;12.27;;
67904;SDS011;54709;43.614;1.576;2023-11-19T09:44:00;16.77;;;12.85;;
67904;SDS011;54709;43.614;1.576;2023-11-19T09:46:25;19.70;;;12.68;;
67904;SDS011;54709;43.614;1.576;2023-11-19T09:48:54;19.45;;;13.13;;
67904;SDS011;54709;43.614;1.576;2023-11-19T09:51:21;16.30;;;12.23;;
67904;SDS011;54709;43.614;1.576;2023-11-19T09:53:47;17.83;;;11.98;;
67904;SDS011;54709;43.614;1.576;2023-11-19T09:56:13;19.77;;;11.75;;
67904;SDS011;54709;43.614;1.576;2023-11-19T09:58:38;16.15;;;11.48;;
67904;SDS011;54709;43.614;1.576;2023-11-19T10:01:05;16.48;;;11.25;;
67904;SDS011;54709;43.614;1.576;2023-11-19T10:03:36;13.75;;;10.52;;
67904;SDS011;54709;43.614;1.576;2023-11-19T10:06:07;17.88;;;11.32;;
67904;SDS011;54709;43.614;1.576;2023-11-19T10:08:33;14.88;;;11.77;;
67904;SDS011;54709;43.614;1.576;2023-11-19T10:10:59;15.65;;;11.32;;
67904;SDS011;54709;43.614;1.576;2023-11-19T10:13:28;18.02;;;11.57;;
67904;SDS011;54709;43.614;1.576;2023-11-19T10:15:54;15.30;;;11.63;;
67904;SDS011;54709;43.614;1.576;2023-11-19T10:18:24;15.75;;;11.25;;
67904;SDS011;54709;43.614;1.576;2023-11-19T10:20:51;17.25;;;10.55;;
67904;SDS011;54709;43.614;1.576;2023-11-19T10:23:16;14.40;;;9.95;;
67904;SDS011;54709;43.614;1.576;2023-11-19T10:25:41;15.10;;;10.48;;
67904;SDS011;54709;43.614;1.576;2023-11-19T10:28:07;15.85;;;9.85;;
67904;SDS011;54709;43.614;1.576;2023-11-19T10:30:32;20.60;;;10.60;;
67904;SDS011;54709;43.614;1.576;2023-11-19T10:33:12;20.80;;;11.20;;
67904;SDS011;54709;43.614;1.576;2023-11-19T10:35:52;16.13;;;10.45;;
67904;SDS011;54709;43.614;1.576;2023-11-19T10:38:18;16.15;;;10.00;;
67904;SDS011;54709;43.614;1.576;2023-11-19T10:40:44;17.55;;;10.38;;
67904;SDS011;54709;43.614;1.576;2023-11-19T10:43:09;14.13;;;9.77;;
67904;SDS011;54709;43.614;1.576;2023-11-19T10:45:35;16.25;;;9.52;;
67904;SDS011;54709;43.614;1.576;2023-11-19T10:48:02;14.02;;;9.52;;
67904;SDS011;54709;43.614;1.576;2023-11-19T10:50:31;17.55;;;8.82;;
67904;SDS011;54709;43.614;1.576;2023-11-19T10:52:56;11.60;;;8.18;;
67904;SDS011;54709;43.614;1.576;2023-11-19T10:55:25;15.60;;;8.45;;
67904;SDS011;54709;43.614;1.576;2023-11-19T10:57:52;12.02;;;8.50;;
67904;SDS011;54709;43.614;1.576;2023-11-19T11:00:18;14.50;;;7.75;;
67904;SDS011;54709;43.614;1.576;2023-11-19T11:02:45;12.13;;;7.60;;
67904;SDS011;54709;43.614;1.576;2023-11-19T11:05:11;10.98;;;6.95;;
67904;SDS011;54709;43.614;1.576;2023-11-19T11:07:37;10.30;;;7.25;;
67904;SDS011;54709;43.614;1.576;2023-11-19T11:10:05;10.18;;;6.60;;
67904;SDS011;54709;43.614;1.576;2023-11-19T11:12:34;13.80;;;7.00;;
67904;SDS011;54709;43.614;1.576;2023-11-19T11:15:02;12.70;;;6.55;;
67904;SDS011;54709;43.614;1.576;2023-11-19T11:17:29;10.30;;;6.70;;
67904;SDS011;54709;43.614;1.576;2023-11-19T11:19:57;10.63;;;6.63;;
67904;SDS011;54709;43.614;1.576;2023-11-19T11:22:22;10.38;;;6.75;;
67904;SDS011;54709;43.614;1.576;2023-11-19T11:24:59;10.90;;;5.97;;
67904;SDS011;54709;43.614;1.576;2023-11-19T11:27:38;9.75;;;6.40;;
67904;SDS011;54709;43.614;1.576;2023-11-19T11:30:55;9.52;;;5.70;;
67904;SDS011;54709;43.614;1.576;2023-11-19T11:34:01;9.60;;;5.95;;
67904;SDS011;54709;43.614;1.576;2023-11-19T11:36:53;10.40;;;6.15;;
67904;SDS011;54709;43.614;1.576;2023-11-19T11:39:23;9.07;;;6.05;;
67904;SDS011;54709;43.614;1.576;2023-11-19T11:50:07;9.90;;;5.88;;
67904;SDS011;54709;43.614;1.576;2023-11-19T11:52:34;9.55;;;6.70;;
67904;SDS011;54709;43.614;1.576;2023-11-19T11:55:04;9.15;;;6.50;;
67904;SDS011;54709;43.614;1.576;2023-11-19T11:57:35;11.05;;;6.25;;
67904;SDS011;54709;43.614;1.576;2023-11-19T12:00:02;9.63;;;5.35;;
67904;SDS011;54709;43.614;1.576;2023-11-19T12:02:30;7.15;;;5.00;;
67904;SDS011;54709;43.614;1.576;2023-11-19T12:04:55;8.05;;;4.30;;
67904;SDS011;54709;43.614;1.576;2023-11-19T12:07:22;7.38;;;4.20;;
67904;SDS011;54709;43.614;1.576;2023-11-19T12:09:51;5.35;;;3.78;;
67904;SDS011;54709;43.614;1.576;2023-11-19T12:12:33;6.03;;;3.90;;
67904;SDS011;54709;43.614;1.576;2023-11-19T12:15:02;5.38;;;3.78;;
67904;SDS011;54709;43.614;1.576;2023-11-19T12:20:03;5.63;;;4.07;;
67904;SDS011;54709;43.614;1.576;2023-11-19T12:22:40;6.82;;;4.07;;
67904;SDS011;54709;43.614;1.576;2023-11-19T12:25:10;8.55;;;4.75;;
67904;SDS011;54709;43.614;1.576;2023-11-19T12:27:39;7.47;;;4.30;;
67904;SDS011;54709;43.614;1.576;2023-11-19T12:30:06;6.75;;;4.25;;
67904;SDS011;54709;43.614;1.576;2023-11-19T12:35:05;7.63;;;4.50;;
67904;SDS011;54709;43.614;1.576;2023-11-19T12:37:30;6.57;;;4.65;;
67904;SDS011;54709;43.614;1.576;2023-11-19T12:39:56;6.90;;;4.70;;
67904;SDS011;54709;43.614;1.576;2023-11-19T12:42:34;7.70;;;4.40;;
67904;SDS011;54709;43.614;1.576;2023-11-19T12:45:01;8.43;;;4.65;;
67904;SDS011;54709;43.614;1.576;2023-11-19T12:47:26;10.13;;;4.95;;
67904;SDS011;54709;43.614;1.576;2023-11-19T12:49:58;6.22;;;4.10;;
67904;SDS011;54709;43.614;1.576;2023-11-19T12:52:23;9.07;;;4.15;;
67904;SDS011;54709;43.614;1.576;2023-11-19T12:54:48;6.43;;;4.22;;
67904;SDS011;54709;43.614;1.576;2023-11-19T12:57:14;7.97;;;4.10;;
67904;SDS011;54709;43.614;1.576;2023-11-19T12:59:40;6.72;;;4.18;;
67904;SDS011;54709;43.614;1.576;2023-11-19T13:02:05;9.23;;;4.47;;
67904;SDS011;54709;43.614;1.576;2023-11-19T13:04:31;7.95;;;4.35;;
67904;SDS011;54709;43.614;1.576;2023-11-19T13:06:57;6.38;;;4.10;;
67904;SDS011;54709;43.614;1.576;2023-11-19T13:09:29;6.45;;;3.90;;
67904;SDS011;54709;43.614;1.576;2023-11-19T13:11:55;6.28;;;3.90;;
67904;SDS011;54709;43.614;1.576;2023-11-19T13:14:21;5.13;;;3.40;;
67904;SDS011;54709;43.614;1.576;2023-11-19T13:16:47;6.40;;;3.22;;
67904;SDS011;54709;43.614;1.576;2023-11-19T13:19:13;5.95;;;3.47;;
67904;SDS011;54709;43.614;1.576;2023-11-19T13:21:43;3.50;;;2.83;;
67904;SDS011;54709;43.614;1.576;2023-11-19T13:24:11;5.05;;;2.83;;
67904;SDS011;54709;43.614;1.576;2023-11-19T13:26:37;5.95;;;3.05;;
67904;SDS011;54709;43.614;1.576;2023-11-19T13:29:03;5.32;;;3.10;;
67904;SDS011;54709;43.614;1.576;2023-11-19T13:31:29;5.80;;;3.10;;
67904;SDS011;54709;43.614;1.576;2023-11-19T13:33:54;4.63;;;2.65;;
67904;SDS011;54709;43.614;1.576;2023-11-19T13:36:20;6.70;;;3.05;;
67904;SDS011;54709;43.614;1.576;2023-11-19T13:38:45;7.50;;;3.20;;
67904;SDS011;54709;43.614;1.576;2023-11-19T13:41:11;5.53;;;3.05;;
67904;SDS011;54709;43.614;1.576;2023-11-19T13:43:37;5.43;;;3.15;;
67904;SDS011;54709;43.614;1.576;2023-11-19T13:46:02;6.50;;;3.28;;
67904;SDS011;54709;43.614;1.576;2023-11-19T13:48:28;5.15;;;3.22;;
67904;SDS011;54709;43.614;1.576;2023-11-19T13:50:54;6.88;;;3.45;;
67904;SDS011;54709;43.614;1.576;2023-11-19T13:53:20;10.48;;;3.45;;
67904;SDS011;54709;43.614;1.576;2023-11-19T13:55:46;6.93;;;3.45;;
67904;SDS011;54709;43.614;1.576;2023-11-19T13:58:12;6.35;;;3.30;;
67904;SDS011;54709;43.614;1.576;2023-11-19T14:00:38;6.32;;;3.30;;
67904;SDS011;54709;43.614;1.576;2023-11-19T14:03:03;8.88;;;3.85;;
67904;SDS011;54709;43.614;1.576;2023-11-19T14:05:29;6.40;;;3.30;;
67904;SDS011;54709;43.614;1.576;2023-11-19T14:07:54;5.32;;;3.55;;
67904;SDS011;54709;43.614;1.576;2023-11-19T14:10:21;5.72;;;3.50;;
67904;SDS011;54709;43.614;1.576;2023-11-19T14:12:47;5.82;;;3.30;;
67904;SDS011;54709;43.614;1.576;2023-11-19T14:15:12;7.63;;;3.85;;
67904;SDS011;54709;43.614;1.576;2023-11-19T14:17:38;9.27;;;3.88;;
67904;SDS011;54709;43.614;1.576;2023-11-19T14:20:04;7.25;;;4.05;;
67904;SDS011;54709;43.614;1.576;2023-11-19T14:22:37;6.07;;;4.03;;
67904;SDS011;54709;43.614;1.576;2023-11-19T14:25:06;8.52;;;4.78;;
67904;SDS011;54709;43.614;1.576;2023-11-19T14:27:35;7.07;;;4.65;;
67904;SDS011;54709;43.614;1.576;2023-11-19T14:30:07;8.23;;;5.00;;
67904;SDS011;54709;43.614;1.576;2023-11-19T14:32:36;7.53;;;4.60;;
67904;SDS011;54709;43.614;1.576;2023-11-19T14:35:02;10.13;;;4.78;;
67904;SDS011;54709;43.614;1.576;2023-11-19T14:37:28;7.45;;;4.63;;
67904;SDS011;54709;43.614;1.576;2023-11-19T14:39:55;7.70;;;4.82;;
67904;SDS011;54709;43.614;1.576;2023-11-19T14:42:21;8.52;;;4.45;;
67904;SDS011;54709;43.614;1.576;2023-11-19T14:44:47;10.95;;;4.88;;